sensor_id;sensor_type;location;lat;lon;timestamp;pressure;altitude;pressure_sealevel;temperature;humidity
77452;BME280;66537;52.370;4.832;2023-05-07T00:00:19;101696.13;;;14.74;95.92
77452;BME280;66537;52.370;4.832;2023-05-07T00:02:45;101691.56;;;14.81;95.15
77452;BME280;66537;52.370;4.832;2023-05-07T00:05:11;101706.44;;;14.77;95.28
77452;BME280;66537;52.370;4.832;2023-05-07T00:07:37;101704.03;;;14.71;95.29
77452;BME280;66537;52.370;4.832;2023-05-07T00:10:03;101697.06;;;14.72;95.28
77452;BME280;66537;52.370;4.832;2023-05-07T00:12:28;101708.72;;;14.60;95.69
77452;BME280;66537;52.370;4.832;2023-05-07T00:14:56;101702.53;;;14.64;95.77
77452;BME280;66537;52.370;4.832;2023-05-07T00:17:22;101706.19;;;14.59;96.79
77452;BME280;66537;52.370;4.832;2023-05-07T00:19:47;101697.44;;;14.60;96.43
77452;BME280;66537;52.370;4.832;2023-05-07T00:22:13;101703.00;;;14.49;96.84
77452;BME280;66537;52.370;4.832;2023-05-07T00:24:38;101712.75;;;14.42;97.73
77452;BME280;66537;52.370;4.832;2023-05-07T00:27:03;101710.16;;;14.42;97.82
77452;BME280;66537;52.370;4.832;2023-05-07T00:29:29;101701.59;;;14.39;97.11
77452;BME280;66537;52.370;4.832;2023-05-07T00:31:54;101705.13;;;14.36;98.27
77452;BME280;66537;52.370;4.832;2023-05-07T00:34:19;101698.03;;;14.41;97.55
77452;BME280;66537;52.370;4.832;2023-05-07T00:36:45;101696.28;;;14.42;98.00
77452;BME280;66537;52.370;4.832;2023-05-07T00:39:11;101702.50;;;14.38;98.02
77452;BME280;66537;52.370;4.832;2023-05-07T00:41:36;101704.94;;;14.42;98.19
77452;BME280;66537;52.370;4.832;2023-05-07T00:44:01;101700.84;;;14.35;98.35
77452;BME280;66537;52.370;4.832;2023-05-07T00:46:28;101694.28;;;14.50;98.35
77452;BME280;66537;52.370;4.832;2023-05-07T00:48:53;101691.69;;;14.50;98.24
77452;BME280;66537;52.370;4.832;2023-05-07T00:51:19;101686.59;;;14.47;98.66
77452;BME280;66537;52.370;4.832;2023-05-07T00:53:46;101691.78;;;14.47;98.13
77452;BME280;66537;52.370;4.832;2023-05-07T00:56:11;101684.88;;;14.46;98.02
77452;BME280;66537;52.370;4.832;2023-05-07T00:58:37;101696.09;;;14.48;98.54
77452;BME280;66537;52.370;4.832;2023-05-07T01:01:03;101694.97;;;14.57;98.46
77452;BME280;66537;52.370;4.832;2023-05-07T01:03:28;101697.38;;;14.63;97.11
77452;BME280;66537;52.370;4.832;2023-05-07T01:05:55;101685.03;;;14.68;96.14
77452;BME280;66537;52.370;4.832;2023-05-07T01:08:23;101690.31;;;14.66;95.84
77452;BME280;66537;52.370;4.832;2023-05-07T01:10:50;101696.44;;;14.65;96.01
77452;BME280;66537;52.370;4.832;2023-05-07T01:13:17;101689.31;;;14.70;95.89
77452;BME280;66537;52.370;4.832;2023-05-07T01:15:43;101700.63;;;14.69;96.21
77452;BME280;66537;52.370;4.832;2023-05-07T01:18:09;101695.38;;;14.71;95.94
77452;BME280;66537;52.370;4.832;2023-05-07T01:20:34;101689.13;;;14.76;96.00
77452;BME280;66537;52.370;4.832;2023-05-07T01:23:00;101693.28;;;14.82;95.17
77452;BME280;66537;52.370;4.832;2023-05-07T01:25:26;101689.00;;;14.79;94.54
77452;BME280;66537;52.370;4.832;2023-05-07T01:27:52;101690.38;;;14.65;94.86
77452;BME280;66537;52.370;4.832;2023-05-07T01:30:18;101689.19;;;14.75;94.86
77452;BME280;66537;52.370;4.832;2023-05-07T01:32:57;101697.47;;;14.86;94.71
77452;BME280;66537;52.370;4.832;2023-05-07T01:35:40;101697.25;;;14.66;95.16
77452;BME280;66537;52.370;4.832;2023-05-07T01:38:06;101694.78;;;14.63;95.00
77452;BME280;66537;52.370;4.832;2023-05-07T01:40:33;101682.34;;;14.71;94.28
77452;BME280;66537;52.370;4.832;2023-05-07T01:42:59;101687.38;;;14.77;93.88
77452;BME280;66537;52.370;4.832;2023-05-07T01:45:25;101689.25;;;14.72;93.95
77452;BME280;66537;52.370;4.832;2023-05-07T01:47:51;101689.63;;;14.61;93.91
77452;BME280;66537;52.370;4.832;2023-05-07T01:50:19;101683.16;;;14.73;93.33
77452;BME280;66537;52.370;4.832;2023-05-07T01:52:44;101677.97;;;14.71;93.19
77452;BME280;66537;52.370;4.832;2023-05-07T01:55:09;101676.09;;;14.76;93.83
77452;BME280;66537;52.370;4.832;2023-05-07T01:57:35;101683.91;;;14.76;93.84
77452;BME280;66537;52.370;4.832;2023-05-07T02:00:00;101685.00;;;14.69;94.27
77452;BME280;66537;52.370;4.832;2023-05-07T02:02:26;101681.13;;;14.55;94.05
77452;BME280;66537;52.370;4.832;2023-05-07T02:04:51;101677.22;;;14.68;93.71
77452;BME280;66537;52.370;4.832;2023-05-07T02:07:16;101672.88;;;14.68;93.00
77452;BME280;66537;52.370;4.832;2023-05-07T02:09:42;101685.22;;;14.63;93.68
77452;BME280;66537;52.370;4.832;2023-05-07T02:12:07;101669.47;;;14.66;93.24
77452;BME280;66537;52.370;4.832;2023-05-07T02:14:32;101683.91;;;14.76;92.94
77452;BME280;66537;52.370;4.832;2023-05-07T02:16:58;101681.44;;;14.72;93.06
77452;BME280;66537;52.370;4.832;2023-05-07T02:19:23;101670.78;;;14.79;93.42
77452;BME280;66537;52.370;4.832;2023-05-07T02:21:48;101676.19;;;14.73;92.95
77452;BME280;66537;52.370;4.832;2023-05-07T02:24:14;101677.91;;;14.74;92.87
77452;BME280;66537;52.370;4.832;2023-05-07T02:26:40;101677.16;;;14.71;92.98
77452;BME280;66537;52.370;4.832;2023-05-07T02:29:06;101671.97;;;14.69;92.47
77452;BME280;66537;52.370;4.832;2023-05-07T02:31:31;101676.47;;;14.64;92.45
77452;BME280;66537;52.370;4.832;2023-05-07T02:33:59;101679.16;;;14.63;92.94
77452;BME280;66537;52.370;4.832;2023-05-07T02:36:24;101680.44;;;14.76;92.83
77452;BME280;66537;52.370;4.832;2023-05-07T02:38:49;101677.28;;;14.66;93.14
77452;BME280;66537;52.370;4.832;2023-05-07T02:41:15;101686.34;;;14.81;92.77
77452;BME280;66537;52.370;4.832;2023-05-07T02:43:40;101693.41;;;14.77;92.41
77452;BME280;66537;52.370;4.832;2023-05-07T02:46:07;101690.81;;;14.77;91.65
77452;BME280;66537;52.370;4.832;2023-05-07T02:48:34;101688.13;;;14.80;91.63
77452;BME280;66537;52.370;4.832;2023-05-07T02:50:59;101689.88;;;14.80;90.99
77452;BME280;66537;52.370;4.832;2023-05-07T02:53:25;101699.22;;;14.85;91.79
77452;BME280;66537;52.370;4.832;2023-05-07T02:55:59;101693.03;;;14.89;91.46
77452;BME280;66537;52.370;4.832;2023-05-07T02:58:25;101693.72;;;14.94;91.54
77452;BME280;66537;52.370;4.832;2023-05-07T03:00:51;101694.63;;;14.93;91.10
77452;BME280;66537;52.370;4.832;2023-05-07T03:03:16;101692.13;;;14.90;90.19
77452;BME280;66537;52.370;4.832;2023-05-07T03:05:42;101693.88;;;14.90;90.21
77452;BME280;66537;52.370;4.832;2023-05-07T03:08:08;101703.19;;;14.97;89.38
77452;BME280;66537;52.370;4.832;2023-05-07T03:10:33;101704.13;;;14.94;88.69
77452;BME280;66537;52.370;4.832;2023-05-07T03:12:59;101690.34;;;14.91;88.94
77452;BME280;66537;52.370;4.832;2023-05-07T03:15:24;101691.56;;;14.81;90.32
77452;BME280;66537;52.370;4.832;2023-05-07T03:17:49;101693.34;;;14.80;88.97
77452;BME280;66537;52.370;4.832;2023-05-07T03:20:15;101688.19;;;14.77;91.62
77452;BME280;66537;52.370;4.832;2023-05-07T03:22:41;101691.66;;;14.78;91.22
77452;BME280;66537;52.370;4.832;2023-05-07T03:25:07;101689.13;;;14.76;91.06
77452;BME280;66537;52.370;4.832;2023-05-07T03:27:32;101685.56;;;14.79;90.84
77452;BME280;66537;52.370;4.832;2023-05-07T03:29:58;101684.50;;;14.84;90.84
77452;BME280;66537;52.370;4.832;2023-05-07T03:32:24;101681.25;;;14.78;90.77
77452;BME280;66537;52.370;4.832;2023-05-07T03:34:49;101682.97;;;14.79;90.25
77452;BME280;66537;52.370;4.832;2023-05-07T03:37:15;101676.97;;;14.75;90.62
77452;BME280;66537;52.370;4.832;2023-05-07T03:39:40;101672.81;;;14.70;89.46
77452;BME280;66537;52.370;4.832;2023-05-07T03:42:06;101680.28;;;14.54;89.29
77452;BME280;66537;52.370;4.832;2023-05-07T03:44:31;101677.28;;;14.66;89.54
77452;BME280;66537;52.370;4.832;2023-05-07T03:46:56;101668.34;;;14.75;89.64
77452;BME280;66537;52.370;4.832;2023-05-07T03:49:22;101679.75;;;14.71;89.34
77452;BME280;66537;52.370;4.832;2023-05-07T03:51:47;101676.44;;;14.66;89.60
77452;BME280;66537;52.370;4.832;2023-05-07T03:54:13;101677.22;;;14.68;89.11
77452;BME280;66537;52.370;4.832;2023-05-07T03:56:38;101673.53;;;14.75;89.50
77452;BME280;66537;52.370;4.832;2023-05-07T03:59:03;101679.56;;;14.77;90.02
77452;BME280;66537;52.370;4.832;2023-05-07T04:01:29;101678.69;;;14.76;90.08
77452;BME280;66537;52.370;4.832;2023-05-07T04:03:54;101679.44;;;14.80;89.31
77452;BME280;66537;52.370;4.832;2023-05-07T04:06:20;101681.25;;;14.78;89.55
77452;BME280;66537;52.370;4.832;2023-05-07T04:08:45;101686.50;;;14.76;89.54
77452;BME280;66537;52.370;4.832;2023-05-07T04:11:11;101688.31;;;14.74;89.79
77452;BME280;66537;52.370;4.832;2023-05-07T04:13:36;101688.19;;;14.77;89.27
77452;BME280;66537;52.370;4.832;2023-05-07T04:16:03;101684.53;;;14.83;89.17
77452;BME280;66537;52.370;4.832;2023-05-07T04:18:29;101684.50;;;14.84;89.23
77452;BME280;66537;52.370;4.832;2023-05-07T04:20:54;101684.50;;;14.84;89.10
77452;BME280;66537;52.370;4.832;2023-05-07T04:23:20;101685.94;;;14.93;89.14
77452;BME280;66537;52.370;4.832;2023-05-07T04:25:45;101687.22;;;14.81;86.51
77452;BME280;66537;52.370;4.832;2023-05-07T04:28:11;101691.09;;;14.94;87.46
77452;BME280;66537;52.370;4.832;2023-05-07T04:30:37;101698.53;;;14.80;87.53
77452;BME280;66537;52.370;4.832;2023-05-07T04:33:03;101700.44;;;14.75;87.02
77452;BME280;66537;52.370;4.832;2023-05-07T04:35:28;101706.16;;;14.86;88.04
77452;BME280;66537;52.370;4.832;2023-05-07T04:37:53;101693.72;;;14.94;87.83
77452;BME280;66537;52.370;4.832;2023-05-07T04:40:19;101695.22;;;15.01;87.08
77452;BME280;66537;52.370;4.832;2023-05-07T04:42:45;101696.84;;;15.05;88.17
77452;BME280;66537;52.370;4.832;2023-05-07T04:45:10;101696.91;;;15.04;87.41
77452;BME280;66537;52.370;4.832;2023-05-07T04:47:37;101694.47;;;14.98;86.36
77452;BME280;66537;52.370;4.832;2023-05-07T04:50:03;101700.38;;;15.03;87.62
77452;BME280;66537;52.370;4.832;2023-05-07T04:52:28;101698.91;;;14.94;86.59
77452;BME280;66537;52.370;4.832;2023-05-07T04:54:53;101705.03;;;14.93;86.51
77452;BME280;66537;52.370;4.832;2023-05-07T04:57:19;101697.19;;;14.95;86.03
77452;BME280;66537;52.370;4.832;2023-05-07T04:59:44;101699.53;;;15.02;86.52
77452;BME280;66537;52.370;4.832;2023-05-07T05:02:10;101697.09;;;14.98;86.44
77452;BME280;66537;52.370;4.832;2023-05-07T05:04:36;101695.22;;;15.01;85.57
77452;BME280;66537;52.370;4.832;2023-05-07T05:07:02;101687.66;;;14.94;86.59
77452;BME280;66537;52.370;4.832;2023-05-07T05:09:29;101698.09;;;14.94;86.75
77452;BME280;66537;52.370;4.832;2023-05-07T05:11:55;101696.44;;;14.91;86.32
77452;BME280;66537;52.370;4.832;2023-05-07T05:14:20;101692.75;;;14.97;86.62
77452;BME280;66537;52.370;4.832;2023-05-07T05:16:45;101698.28;;;14.88;87.24
77452;BME280;66537;52.370;4.832;2023-05-07T05:19:11;101703.31;;;14.94;86.54
77452;BME280;66537;52.370;4.832;2023-05-07T05:21:36;101702.44;;;14.93;86.50
77452;BME280;66537;52.370;4.832;2023-05-07T05:24:01;101706.16;;;14.86;86.65
77452;BME280;66537;52.370;4.832;2023-05-07T05:26:27;101705.16;;;14.90;87.44
77452;BME280;66537;52.370;4.832;2023-05-07T05:28:52;101712.56;;;15.02;86.86
77452;BME280;66537;52.370;4.832;2023-05-07T05:31:18;101721.16;;;15.04;87.66
77452;BME280;66537;52.370;4.832;2023-05-07T05:33:43;101719.91;;;15.16;87.10
77452;BME280;66537;52.370;4.832;2023-05-07T05:36:12;101722.56;;;15.14;87.01
77452;BME280;66537;52.370;4.832;2023-05-07T05:38:38;101730.31;;;15.17;86.62
77452;BME280;66537;52.370;4.832;2023-05-07T05:41:04;101738.06;;;15.19;86.69
77452;BME280;66537;52.370;4.832;2023-05-07T05:43:30;101740.50;;;15.23;87.15
77452;BME280;66537;52.370;4.832;2023-05-07T05:45:56;101743.81;;;15.28;86.76
77452;BME280;66537;52.370;4.832;2023-05-07T05:48:22;101743.72;;;15.31;87.00
77452;BME280;66537;52.370;4.832;2023-05-07T05:50:47;101747.03;;;15.36;87.30
77452;BME280;66537;52.370;4.832;2023-05-07T05:53:13;101746.50;;;15.27;88.11
77452;BME280;66537;52.370;4.832;2023-05-07T05:55:38;101746.06;;;15.39;87.13
77452;BME280;66537;52.370;4.832;2023-05-07T05:58:03;101749.59;;;15.38;87.34
77452;BME280;66537;52.370;4.832;2023-05-07T06:00:29;101744.31;;;15.39;87.35
77452;BME280;66537;52.370;4.832;2023-05-07T06:02:55;101746.69;;;15.47;86.87
77452;BME280;66537;52.370;4.832;2023-05-07T06:05:20;101749.63;;;15.63;86.80
77452;BME280;66537;52.370;4.832;2023-05-07T06:07:45;101743.19;;;15.73;85.91
77452;BME280;66537;52.370;4.832;2023-05-07T06:10:11;101753.13;;;15.86;85.64
77452;BME280;66537;52.370;4.832;2023-05-07T06:12:36;101757.19;;;15.93;84.84
77452;BME280;66537;52.370;4.832;2023-05-07T06:15:02;101762.31;;;15.96;84.72
77452;BME280;66537;52.370;4.832;2023-05-07T06:17:27;101761.19;;;16.03;84.48
77452;BME280;66537;52.370;4.832;2023-05-07T06:19:53;101765.91;;;16.17;83.20
77452;BME280;66537;52.370;4.832;2023-05-07T06:22:18;101765.81;;;16.20;83.39
77452;BME280;66537;52.370;4.832;2023-05-07T06:24:44;101763.94;;;16.23;83.47
77452;BME280;66537;52.370;4.832;2023-05-07T06:27:10;101763.50;;;16.34;82.25
77452;BME280;66537;52.370;4.832;2023-05-07T06:29:35;101765.09;;;16.38;81.93
77452;BME280;66537;52.370;4.832;2023-05-07T06:32:11;101759.22;;;16.56;81.93
77452;BME280;66537;52.370;4.832;2023-05-07T06:34:37;101760.66;;;16.40;81.85
77452;BME280;66537;52.370;4.832;2023-05-07T06:37:03;101767.53;;;16.43;81.70
77452;BME280;66537;52.370;4.832;2023-05-07T06:39:28;101767.84;;;16.58;81.61
77452;BME280;66537;52.370;4.832;2023-05-07T06:41:53;101767.56;;;16.87;80.96
77452;BME280;66537;52.370;4.832;2023-05-07T06:44:19;101769.28;;;17.08;78.95
77452;BME280;66537;52.370;4.832;2023-05-07T06:46:44;101772.19;;;17.84;77.39
77452;BME280;66537;52.370;4.832;2023-05-07T06:49:10;101776.63;;;18.40;75.34
77452;BME280;66537;52.370;4.832;2023-05-07T06:51:36;101768.91;;;19.10;72.75
77452;BME280;66537;52.370;4.832;2023-05-07T06:54:01;101772.72;;;18.30;73.30
77452;BME280;66537;52.370;4.832;2023-05-07T06:56:26;101766.53;;;18.12;74.39
77452;BME280;66537;52.370;4.832;2023-05-07T06:58:52;101770.72;;;17.77;73.80
77452;BME280;66537;52.370;4.832;2023-05-07T07:01:17;101761.03;;;17.79;73.96
77452;BME280;66537;52.370;4.832;2023-05-07T07:03:42;101760.59;;;17.90;74.91
77452;BME280;66537;52.370;4.832;2023-05-07T07:06:08;101765.41;;;17.79;74.09
77452;BME280;66537;52.370;4.832;2023-05-07T07:08:33;101766.25;;;17.99;74.15
77452;BME280;66537;52.370;4.832;2023-05-07T07:10:59;101756.38;;;18.80;72.89
77452;BME280;66537;52.370;4.832;2023-05-07T07:13:25;101758.53;;;18.89;72.93
77452;BME280;66537;52.370;4.832;2023-05-07T07:15:51;101764.66;;;19.93;69.76
77452;BME280;66537;52.370;4.832;2023-05-07T07:18:17;101756.81;;;21.47;66.48
77452;BME280;66537;52.370;4.832;2023-05-07T07:20:42;101757.59;;;22.62;61.88
77452;BME280;66537;52.370;4.832;2023-05-07T07:23:09;101764.09;;;22.70;60.32
77452;BME280;66537;52.370;4.832;2023-05-07T07:25:34;101761.41;;;23.23;59.33
77452;BME280;66537;52.370;4.832;2023-05-07T07:28:00;101757.66;;;23.01;57.90
77452;BME280;66537;52.370;4.832;2023-05-07T07:30:25;101764.13;;;22.83;59.63
77452;BME280;66537;52.370;4.832;2023-05-07T07:32:51;101768.34;;;22.44;60.43
77452;BME280;66537;52.370;4.832;2023-05-07T07:35:17;101775.63;;;21.85;60.87
77452;BME280;66537;52.370;4.832;2023-05-07T07:37:43;101777.13;;;21.15;62.08
77452;BME280;66537;52.370;4.832;2023-05-07T07:40:08;101776.72;;;20.60;63.30
77452;BME280;66537;52.370;4.832;2023-05-07T07:42:34;101771.13;;;20.66;64.63
77452;BME280;66537;52.370;4.832;2023-05-07T07:44:59;101769.25;;;20.68;65.15
77452;BME280;66537;52.370;4.832;2023-05-07T07:47:25;101775.31;;;21.45;62.79
77452;BME280;66537;52.370;4.832;2023-05-07T07:49:50;101778.16;;;21.86;61.69
77452;BME280;66537;52.370;4.832;2023-05-07T07:52:15;101768.59;;;21.55;61.50
77452;BME280;66537;52.370;4.832;2023-05-07T07:54:41;101771.38;;;21.38;62.94
77452;BME280;66537;52.370;4.832;2023-05-07T07:57:06;101779.34;;;21.37;62.41
77452;BME280;66537;52.370;4.832;2023-05-07T07:59:31;101778.09;;;21.28;63.46
77452;BME280;66537;52.370;4.832;2023-05-07T08:01:57;101777.16;;;21.59;61.99
77452;BME280;66537;52.370;4.832;2023-05-07T08:04:22;101779.16;;;22.54;61.20
77452;BME280;66537;52.370;4.832;2023-05-07T08:06:48;101770.47;;;23.84;57.50
77452;BME280;66537;52.370;4.832;2023-05-07T08:09:13;101771.53;;;23.17;56.56
77452;BME280;66537;52.370;4.832;2023-05-07T08:11:39;101774.59;;;23.63;56.93
77452;BME280;66537;52.370;4.832;2023-05-07T08:14:04;101757.22;;;24.34;55.03
77452;BME280;66537;52.370;4.832;2023-05-07T08:16:30;101762.81;;;25.37;54.42
77452;BME280;66537;52.370;4.832;2023-05-07T08:18:55;101770.00;;;25.24;51.84
77452;BME280;66537;52.370;4.832;2023-05-07T08:21:21;101766.66;;;25.33;51.75
77452;BME280;66537;52.370;4.832;2023-05-07T08:23:46;101779.25;;;26.21;51.01
77452;BME280;66537;52.370;4.832;2023-05-07T08:26:12;101775.09;;;26.72;52.74
77452;BME280;66537;52.370;4.832;2023-05-07T08:28:37;101777.69;;;26.94;48.36
77452;BME280;66537;52.370;4.832;2023-05-07T08:31:02;101777.03;;;25.92;48.45
77452;BME280;66537;52.370;4.832;2023-05-07T08:33:28;101779.31;;;24.82;51.92
77452;BME280;66537;52.370;4.832;2023-05-07T08:35:53;101787.22;;;24.58;52.43
77452;BME280;66537;52.370;4.832;2023-05-07T08:38:18;101785.91;;;23.90;53.68
77452;BME280;66537;52.370;4.832;2023-05-07T08:40:44;101788.34;;;23.80;54.58
77452;BME280;66537;52.370;4.832;2023-05-07T08:43:14;101797.47;;;23.37;55.79
77452;BME280;66537;52.370;4.832;2023-05-07T08:45:40;101798.56;;;23.47;56.95
77452;BME280;66537;52.370;4.832;2023-05-07T08:48:14;101793.91;;;23.38;55.12
77452;BME280;66537;52.370;4.832;2023-05-07T08:50:40;101794.56;;;23.67;56.98
77452;BME280;66537;52.370;4.832;2023-05-07T08:53:05;101798.28;;;23.89;55.46
77452;BME280;66537;52.370;4.832;2023-05-07T08:55:31;101803.44;;;23.53;54.57
77452;BME280;66537;52.370;4.832;2023-05-07T08:57:57;101795.28;;;23.56;54.62
77452;BME280;66537;52.370;4.832;2023-05-07T09:00:22;101801.69;;;24.04;53.49
77452;BME280;66537;52.370;4.832;2023-05-07T09:02:47;101800.25;;;23.73;54.08
77452;BME280;66537;52.370;4.832;2023-05-07T09:05:13;101801.59;;;23.41;55.89
77452;BME280;66537;52.370;4.832;2023-05-07T09:07:39;101800.03;;;24.52;52.88
77452;BME280;66537;52.370;4.832;2023-05-07T09:10:05;101798.44;;;25.56;52.43
77452;BME280;66537;52.370;4.832;2023-05-07T09:12:31;101803.41;;;25.14;51.89
77452;BME280;66537;52.370;4.832;2023-05-07T09:14:56;101801.41;;;23.69;52.13
77452;BME280;66537;52.370;4.832;2023-05-07T09:17:22;101812.56;;;23.35;53.21
77452;BME280;66537;52.370;4.832;2023-05-07T09:19:48;101804.34;;;23.52;54.43
77452;BME280;66537;52.370;4.832;2023-05-07T09:22:14;101805.63;;;23.34;54.38
77452;BME280;66537;52.370;4.832;2023-05-07T09:24:40;101807.59;;;23.30;54.32
77452;BME280;66537;52.370;4.832;2023-05-07T09:27:06;101799.72;;;23.43;53.98
77452;BME280;66537;52.370;4.832;2023-05-07T09:29:31;101797.75;;;23.84;57.04
77452;BME280;66537;52.370;4.832;2023-05-07T09:32:04;101794.59;;;25.02;52.81
77452;BME280;66537;52.370;4.832;2023-05-07T09:34:30;101797.03;;;25.97;48.08
77452;BME280;66537;52.370;4.832;2023-05-07T09:36:56;101794.25;;;26.87;46.32
77452;BME280;66537;52.370;4.832;2023-05-07T09:39:23;101798.66;;;26.97;46.24
77452;BME280;66537;52.370;4.832;2023-05-07T09:41:49;101795.47;;;26.60;46.89
77452;BME280;66537;52.370;4.832;2023-05-07T09:44:14;101805.28;;;26.16;48.57
77452;BME280;66537;52.370;4.832;2023-05-07T09:46:42;101807.19;;;25.91;49.42
77452;BME280;66537;52.370;4.832;2023-05-07T09:49:12;101795.78;;;25.67;49.24
77452;BME280;66537;52.370;4.832;2023-05-07T09:51:48;101803.41;;;25.83;49.72
77452;BME280;66537;52.370;4.832;2023-05-07T09:54:14;101809.25;;;26.43;47.55
77452;BME280;66537;52.370;4.832;2023-05-07T09:56:40;101803.03;;;26.98;45.66
77452;BME280;66537;52.370;4.832;2023-05-07T09:59:10;101791.59;;;25.76;47.84
77452;BME280;66537;52.370;4.832;2023-05-07T10:01:38;101791.09;;;25.71;49.02
77452;BME280;66537;52.370;4.832;2023-05-07T10:04:05;101796.44;;;25.93;48.41
77452;BME280;66537;52.370;4.832;2023-05-07T10:06:31;101807.44;;;26.22;48.17
77452;BME280;66537;52.370;4.832;2023-05-07T10:08:56;101798.78;;;25.63;47.97
77452;BME280;66537;52.370;4.832;2023-05-07T10:11:22;101804.78;;;25.43;50.27
77452;BME280;66537;52.370;4.832;2023-05-07T10:13:48;101808.44;;;25.64;49.42
77452;BME280;66537;52.370;4.832;2023-05-07T10:16:14;101805.03;;;25.27;49.22
77452;BME280;66537;52.370;4.832;2023-05-07T10:18:42;101809.16;;;24.84;50.47
77452;BME280;66537;52.370;4.832;2023-05-07T10:21:17;101813.44;;;24.61;51.03
77452;BME280;66537;52.370;4.832;2023-05-07T10:23:49;101810.00;;;24.36;51.75
77452;BME280;66537;52.370;4.832;2023-05-07T10:26:15;101814.25;;;24.38;52.27
77452;BME280;66537;52.370;4.832;2023-05-07T10:28:49;101807.00;;;24.04;53.15
77452;BME280;66537;52.370;4.832;2023-05-07T10:34:00;101819.44;;;23.38;54.26
77452;BME280;66537;52.370;4.832;2023-05-07T10:36:28;101816.97;;;23.74;53.25
77452;BME280;66537;52.370;4.832;2023-05-07T10:38:53;101819.09;;;24.32;53.93
77452;BME280;66537;52.370;4.832;2023-05-07T10:41:20;101812.53;;;24.50;52.68
77452;BME280;66537;52.370;4.832;2023-05-07T10:43:46;101809.31;;;24.70;52.60
77452;BME280;66537;52.370;4.832;2023-05-07T10:46:19;101808.22;;;24.36;54.20
77452;BME280;66537;52.370;4.832;2023-05-07T10:51:26;101808.13;;;26.02;48.35
77452;BME280;66537;52.370;4.832;2023-05-07T10:56:40;101805.19;;;25.37;47.66
77452;BME280;66537;52.370;4.832;2023-05-07T11:01:56;101809.50;;;26.51;46.61
77452;BME280;66537;52.370;4.832;2023-05-07T11:04:23;101826.69;;;26.68;47.17
77452;BME280;66537;52.370;4.832;2023-05-07T11:07:25;101824.81;;;26.26;46.84
77452;BME280;66537;52.370;4.832;2023-05-07T11:12:16;101826.25;;;26.30;47.42
77452;BME280;66537;52.370;4.832;2023-05-07T11:17:08;101812.47;;;25.91;47.24
77452;BME280;66537;52.370;4.832;2023-05-07T11:19:50;101813.03;;;25.73;49.69
77452;BME280;66537;52.370;4.832;2023-05-07T11:24:59;101821.81;;;25.39;50.55
77452;BME280;66537;52.370;4.832;2023-05-07T11:27:25;101814.13;;;25.36;51.04
77452;BME280;66537;52.370;4.832;2023-05-07T11:29:51;101825.50;;;25.01;50.84
77452;BME280;66537;52.370;4.832;2023-05-07T11:32:32;101821.50;;;24.47;52.56
77452;BME280;66537;52.370;4.832;2023-05-07T11:34:59;101814.56;;;24.08;52.46
77452;BME280;66537;52.370;4.832;2023-05-07T11:37:26;101830.41;;;23.83;52.70
77452;BME280;66537;52.370;4.832;2023-05-07T11:40:07;101824.38;;;23.69;53.89
77452;BME280;66537;52.370;4.832;2023-05-07T11:42:37;101824.22;;;23.58;54.19
77452;BME280;66537;52.370;4.832;2023-05-07T11:45:04;101823.25;;;23.46;54.63
77452;BME280;66537;52.370;4.832;2023-05-07T11:47:30;101824.38;;;23.69;53.82
77452;BME280;66537;52.370;4.832;2023-05-07T11:49:56;101825.63;;;23.76;53.85
77452;BME280;66537;52.370;4.832;2023-05-07T11:52:23;101818.88;;;23.33;54.05
77452;BME280;66537;52.370;4.832;2023-05-07T11:57:15;101817.84;;;23.99;52.39
77452;BME280;66537;52.370;4.832;2023-05-07T11:59:40;101822.63;;;24.20;52.17
77452;BME280;66537;52.370;4.832;2023-05-07T12:02:06;101828.41;;;23.99;51.80
77452;BME280;66537;52.370;4.832;2023-05-07T12:04:32;101835.25;;;23.64;53.20
77452;BME280;66537;52.370;4.832;2023-05-07T12:06:57;101830.19;;;23.61;52.38
77452;BME280;66537;52.370;4.832;2023-05-07T12:09:23;101822.22;;;23.49;52.79
77452;BME280;66537;52.370;4.832;2023-05-07T12:11:48;101820.84;;;23.16;53.80
77452;BME280;66537;52.370;4.832;2023-05-07T12:14:14;101824.47;;;23.28;52.10
77452;BME280;66537;52.370;4.832;2023-05-07T12:16:41;101828.53;;;23.19;52.03
77452;BME280;66537;52.370;4.832;2023-05-07T12:19:07;101829.44;;;23.33;52.27
77452;BME280;66537;52.370;4.832;2023-05-07T12:21:34;101830.44;;;22.91;53.46
77452;BME280;66537;52.370;4.832;2023-05-07T12:24:01;101826.66;;;22.95;52.01
77452;BME280;66537;52.370;4.832;2023-05-07T12:26:26;101824.28;;;22.64;54.41
77452;BME280;66537;52.370;4.832;2023-05-07T12:28:51;101836.00;;;22.86;54.06
77452;BME280;66537;52.370;4.832;2023-05-07T12:31:17;101836.47;;;22.93;53.74
77452;BME280;66537;52.370;4.832;2023-05-07T12:33:42;101831.72;;;22.98;52.52
77452;BME280;66537;52.370;4.832;2023-05-07T12:36:08;101836.84;;;23.13;53.31
77452;BME280;66537;52.370;4.832;2023-05-07T12:38:37;101831.94;;;23.21;53.25
77452;BME280;66537;52.370;4.832;2023-05-07T12:41:04;101836.69;;;23.16;53.89
77452;BME280;66537;52.370;4.832;2023-05-07T12:43:30;101840.00;;;23.06;54.07
77452;BME280;66537;52.370;4.832;2023-05-07T12:45:57;101841.50;;;23.10;53.86
77452;BME280;66537;52.370;4.832;2023-05-07T12:48:23;101837.59;;;22.89;55.00
77452;BME280;66537;52.370;4.832;2023-05-07T12:50:53;101836.22;;;22.83;54.05
77452;BME280;66537;52.370;4.832;2023-05-07T12:53:21;101838.34;;;22.91;55.81
77452;BME280;66537;52.370;4.832;2023-05-07T12:55:49;101837.47;;;23.04;53.80
77452;BME280;66537;52.370;4.832;2023-05-07T12:58:19;101839.84;;;22.95;54.26
77452;BME280;66537;52.370;4.832;2023-05-07T13:00:47;101841.13;;;22.75;55.87
77452;BME280;66537;52.370;4.832;2023-05-07T13:03:41;101838.31;;;22.36;56.09
77452;BME280;66537;52.370;4.832;2023-05-07T13:06:09;101844.91;;;22.29;55.46